Airfield :
LOGIN :

Register | Disclaimer

   EN    FR    IT 

 










Legend :    VFR   Marginal VFR   IFR   Intensive IFR   Very Intensive IFR
Visi :
Ceiling :
>= 8 km
>= 3000ft
5 to 8 km
1000 to 3000 ft
1500m to 5 km
500 to 1000 ft
800 to 1500m
200 to 500 ft
< 800m
< 200 ft
Symbols :   Thunderstorms  Fog  Heavy snow  Heavy precipitations  Wind > 20 kt
SIGMETs :     Misc.  Thunderstorms  Icing  Turbulence  Mountain Waves  Volcanic Ashes







- Airport Elevation : 65 ft
- IATA code : PIK
- Download approach charts


EGPK - Glasgow Prestwick

CURRENT METAR :
  • 211820Z 17012KT CAVOK 18/05 Q1012

EXPIRED METARs :
  • 211750Z 18014KT CAVOK 18/05 Q1012
  • 211720Z 17012KT CAVOK 19/05 Q1012
  • 211650Z 17014KT CAVOK 20/04 Q1012
  • 211620Z 16013KT CAVOK 20/05 Q1013
  • 211550Z 18015KT CAVOK 20/08 Q1013

TAF TAF EGPK
Valid from the 21 at 18:00 until the 22 at 18:00 UTC


211659Z 2118/2218 18012KT CAVOK
PROB30
TEMPO 2118/2123 18015G25KT
BECMG 2203/2206 12009KT
PROB30
TEMPO 2203/2207 7000
TEMPO 2210/2215 16015G25KT
No reported NOTAMs for that airfield.



MET'MAP, your aeronautical weather chart ! - Copyright ORBIFLY December 2007 - Disclaimer

ORBIFLY MET'MAP TEAM :

Programming & Development : Alexandra Zaïnal
Concept & Development : Baudouin d'Aumeries
Co-Development & Prog : Marc-Olivier Méhu
Technical & hardware support : Manuel Goepfert

Contact : metmap@orbifly.com




SOURCES & CREDITS :

   NOAA